Time;durP1;ratioP1;P1;durP2;ratioP2;P2;SDS_P1;SDS_P2;PMS_P1;PMS_P2;Temp;Humidity;BMP_temperature;BMP_pressure;BME280_temperature;BME280_humidity;BME280_pressure;Samples;Min_cycle;Max_cycle;Signal;HPM_P1;HPM_P2
2023/12/26 00:01:51;;;;;;;2.33;1.60;;;7.80;65.80;;;;;;4988288;28;20038;-65
2023/12/26 00:04:17;;;;;;;2.08;1.55;;;7.80;66.10;;;;;;4990658;28;20034;-64
2023/12/26 00:06:45;;;;;;;2.92;1.50;;;7.70;66.40;;;;;;4990446;28;20050;-65
2023/12/26 00:09:12;;;;;;;2.70;1.20;;;7.70;66.70;;;;;;4988116;28;20162;-65
2023/12/26 00:11:45;;;;;;;3.70;1.40;;;7.70;66.90;;;;;;4990200;28;20502;-63
2023/12/26 00:14:12;;;;;;;3.35;1.50;;;7.60;67.70;;;;;;4989592;28;20049;-65
2023/12/26 00:16:40;;;;;;;5.32;1.40;;;7.60;67.60;;;;;;4986343;28;20054;-65
2023/12/26 00:19:05;;;;;;;4.68;1.70;;;7.50;68.00;;;;;;4985402;28;20375;-65
2023/12/26 00:21:31;;;;;;;3.10;1.42;;;7.50;68.50;;;;;;4987840;28;20065;-64
2023/12/26 00:23:57;;;;;;;2.15;1.63;;;7.40;68.60;;;;;;4989847;28;20117;-65
2023/12/26 00:26:22;;;;;;;2.83;1.33;;;7.40;69.00;;;;;;4989081;28;20054;-65
2023/12/26 00:28:48;;;;;;;4.40;1.50;;;7.30;69.20;;;;;;4990154;28;20050;-65
2023/12/26 00:31:14;;;;;;;2.65;1.50;;;7.30;69.50;;;;;;4989086;28;20053;-65
2023/12/26 00:33:39;;;;;;;3.67;1.42;;;7.20;69.70;;;;;;4987436;28;20121;-65
2023/12/26 00:36:05;;;;;;;3.10;1.65;;;7.20;70.00;;;;;;4989322;28;20100;-64
2023/12/26 00:38:31;;;;;;;3.63;1.77;;;7.20;70.20;;;;;;4989198;28;20528;-64
2023/12/26 00:40:57;;;;;;;2.63;1.45;;;7.10;70.50;;;;;;4988710;28;20030;-65
2023/12/26 00:43:22;;;;;;;1.95;1.50;;;7.10;70.60;;;;;;4989798;28;20110;-65
2023/12/26 00:45:48;;;;;;;4.22;1.75;;;7.10;70.90;;;;;;4989167;28;20057;-65
2023/12/26 00:48:13;;;;;;;3.90;2.00;;;7.10;71.10;;;;;;4996137;28;20506;-65
2023/12/26 00:50:41;;;;;;;2.17;1.70;;;7.10;71.20;;;;;;4989280;28;20149;-64
2023/12/26 00:53:10;;;;;;;3.35;1.42;;;7.10;71.30;;;;;;4987687;28;20031;-65
2023/12/26 00:55:36;;;;;;;4.38;1.80;;;7.10;71.40;;;;;;4981149;28;20062;-64
2023/12/26 00:58:01;;;;;;;2.10;1.73;;;7.10;71.30;;;;;;4988928;28;20046;-64
2023/12/26 01:00:27;;;;;;;2.50;1.67;;;7.00;71.40;;;;;;4988462;28;20026;-65
2023/12/26 01:02:53;;;;;;;4.43;1.70;;;7.00;71.70;;;;;;4987838;28;20034;-65
2023/12/26 01:05:18;;;;;;;3.50;1.80;;;7.00;71.80;;;;;;4988597;28;20038;-63
2023/12/26 01:07:44;;;;;;;2.45;1.70;;;7.00;72.10;;;;;;4990929;28;20065;-64
2023/12/26 01:10:10;;;;;;;3.40;1.98;;;6.90;72.30;;;;;;4989200;28;20521;-64
2023/12/26 01:12:35;;;;;;;3.80;1.80;;;6.90;72.50;;;;;;4987933;28;20125;-65
2023/12/26 01:15:01;;;;;;;3.15;1.98;;;6.90;72.70;;;;;;4987430;28;20038;-64
2023/12/26 01:17:27;;;;;;;4.70;2.10;;;6.90;73.00;;;;;;4988989;28;20081;-64
2023/12/26 01:19:52;;;;;;;5.78;1.95;;;6.90;73.10;;;;;;4990269;28;20049;-65
2023/12/26 01:22:18;;;;;;;2.88;1.90;;;6.90;73.30;;;;;;4987640;28;20046;-65
2023/12/26 01:24:43;;;;;;;4.25;1.67;;;6.90;73.30;;;;;;4988496;28;20039;-65
2023/12/26 01:27:09;;;;;;;2.97;1.60;;;6.90;73.30;;;;;;4987178;28;20046;-65
2023/12/26 01:29:35;;;;;;;3.58;1.90;;;6.90;73.30;;;;;;4987077;28;20488;-64
2023/12/26 01:32:01;;;;;;;3.10;1.58;;;6.90;73.40;;;;;;4988713;28;20046;-65
2023/12/26 01:34:26;;;;;;;4.78;1.67;;;6.90;73.30;;;;;;4988346;28;20039;-64
2023/12/26 01:36:52;;;;;;;2.63;1.55;;;6.90;73.20;;;;;;4987959;28;20041;-64
2023/12/26 01:39:17;;;;;;;2.67;1.77;;;6.90;72.90;;;;;;4987907;28;20073;-65
2023/12/26 01:41:43;;;;;;;1.95;1.60;;;6.90;72.70;;;;;;4986399;28;20081;-65
2023/12/26 01:44:09;;;;;;;3.10;1.75;;;6.90;72.70;;;;;;4988696;28;20410;-65
2023/12/26 01:46:35;;;;;;;3.15;1.60;;;6.90;72.70;;;;;;4988762;28;20038;-63
2023/12/26 01:49:00;;;;;;;4.28;1.80;;;6.90;72.60;;;;;;4988711;28;20065;-65
2023/12/26 01:51:29;;;;;;;4.65;1.90;;;6.90;72.30;;;;;;4988055;28;20043;-65
2023/12/26 01:53:56;;;;;;;4.50;1.67;;;6.90;72.30;;;;;;4986041;28;20077;-65
2023/12/26 01:56:22;;;;;;;2.47;1.60;;;6.90;72.10;;;;;;4988429;28;20494;-64
2023/12/26 01:58:49;;;;;;;3.80;1.48;;;6.90;72.00;;;;;;4988538;28;20037;-65
2023/12/26 02:01:15;;;;;;;2.55;1.25;;;6.90;72.00;;;;;;4988717;28;20042;-64
2023/12/26 02:03:42;;;;;;;4.95;1.67;;;6.80;71.60;;;;;;4985468;28;20669;-65
2023/12/26 02:06:09;;;;;;;4.10;1.70;;;6.80;71.60;;;;;;4988355;28;20034;-63
2023/12/26 02:08:37;;;;;;;3.70;1.60;;;6.80;71.60;;;;;;4988204;28;20022;-63
2023/12/26 02:11:03;;;;;;;2.70;1.60;;;6.70;71.60;;;;;;4987514;28;20038;-64
2023/12/26 02:13:29;;;;;;;2.00;1.35;;;6.60;71.50;;;;;;4991069;28;20030;-63
2023/12/26 02:15:58;;;;;;;2.92;1.73;;;6.60;71.40;;;;;;4992925;28;20113;-64
2023/12/26 02:18:24;;;;;;;1.75;1.60;;;6.60;71.50;;;;;;4994364;28;20034;-63
2023/12/26 02:20:50;;;;;;;2.63;1.48;;;6.50;71.40;;;;;;4992293;28;20034;-64
2023/12/26 02:23:15;;;;;;;3.05;1.50;;;6.50;71.50;;;;;;4995423;28;20037;-62
2023/12/26 02:25:41;;;;;;;2.92;1.52;;;6.40;71.50;;;;;;4991929;28;20038;-63
2023/12/26 02:28:08;;;;;;;4.18;1.48;;;6.40;71.60;;;;;;4991198;28;20089;-66
2023/12/26 02:30:35;;;;;;;1.65;1.30;;;6.40;71.70;;;;;;4990555;28;20045;-64
2023/12/26 02:33:02;;;;;;;3.30;1.48;;;6.30;71.90;;;;;;4991902;28;20520;-63
2023/12/26 02:35:28;;;;;;;1.63;1.23;;;6.20;72.20;;;;;;4988461;28;20035;-64
2023/12/26 02:37:54;;;;;;;3.50;1.50;;;6.10;72.60;;;;;;4991966;28;20522;-64
2023/12/26 02:40:20;;;;;;;3.03;1.40;;;6.10;72.70;;;;;;4990886;28;20038;-63
2023/12/26 02:42:45;;;;;;;1.90;1.10;;;6.00;72.70;;;;;;4989911;28;20577;-64
2023/12/26 02:45:11;;;;;;;2.70;1.30;;;6.00;72.70;;;;;;4990496;28;20518;-64
2023/12/26 02:47:37;;;;;;;2.22;1.40;;;6.00;72.60;;;;;;4991511;28;20077;-63
2023/12/26 02:50:02;;;;;;;2.00;1.40;;;5.90;72.60;;;;;;4991836;28;20034;-63
2023/12/26 02:52:28;;;;;;;3.35;1.40;;;5.90;72.60;;;;;;4991424;28;20038;-64
2023/12/26 02:54:54;;;;;;;2.17;1.42;;;5.90;72.60;;;;;;4990589;28;20503;-63
2023/12/26 02:57:19;;;;;;;2.28;1.58;;;5.80;72.60;;;;;;4990457;28;20026;-63
2023/12/26 02:59:45;;;;;;;2.92;1.40;;;5.80;72.60;;;;;;4994307;28;20443;-63
2023/12/26 03:02:11;;;;;;;3.22;1.50;;;5.70;72.70;;;;;;4990881;28;20421;-64
2023/12/26 03:04:36;;;;;;;1.90;1.50;;;5.70;72.80;;;;;;4989271;28;20039;-63
2023/12/26 03:07:02;;;;;;;4.45;1.73;;;5.70;72.90;;;;;;4993500;28;20053;-64
2023/12/26 03:09:28;;;;;;;2.47;1.50;;;5.60;73.10;;;;;;4989802;28;20030;-63
2023/12/26 03:11:53;;;;;;;2.65;1.23;;;5.50;73.30;;;;;;4990935;28;20038;-63
2023/12/26 03:14:19;;;;;;;3.25;1.85;;;5.50;73.40;;;;;;4990705;28;20027;-63
2023/12/26 03:16:44;;;;;;;3.75;1.52;;;5.50;73.50;;;;;;4990915;28;20117;-63
2023/12/26 03:19:10;;;;;;;2.58;1.63;;;5.40;73.70;;;;;;4989355;28;20038;-63
2023/12/26 03:21:35;;;;;;;3.05;1.40;;;5.40;73.80;;;;;;4982065;28;20043;-66
2023/12/26 03:24:01;;;;;;;3.95;1.30;;;5.40;73.90;;;;;;4990649;28;20030;-63
2023/12/26 03:26:27;;;;;;;4.03;1.40;;;5.40;74.10;;;;;;4990414;28;20026;-63
2023/12/26 03:28:52;;;;;;;2.08;1.30;;;5.30;74.20;;;;;;4990505;28;20034;-63
2023/12/26 03:31:18;;;;;;;1.83;1.40;;;5.30;74.20;;;;;;4990500;28;20391;-63
2023/12/26 03:33:43;;;;;;;2.30;1.50;;;5.30;74.20;;;;;;4990398;28;20031;-63
2023/12/26 03:36:09;;;;;;;3.40;1.40;;;5.30;74.20;;;;;;4991070;28;20117;-62
2023/12/26 03:38:38;;;;;;;4.63;1.60;;;5.30;74.10;;;;;;4989759;28;20317;-63
2023/12/26 03:41:04;;;;;;;3.90;1.40;;;5.20;74.30;;;;;;4990374;28;20077;-62
2023/12/26 03:43:29;;;;;;;2.10;1.60;;;5.20;74.20;;;;;;4992654;28;20521;-66
2023/12/26 03:45:55;;;;;;;3.45;1.50;;;5.10;74.20;;;;;;4989252;28;20034;-63
2023/12/26 03:48:20;;;;;;;4.60;1.83;;;5.10;74.10;;;;;;4991742;28;20038;-63
2023/12/26 03:50:46;;;;;;;5.75;1.77;;;5.10;74.30;;;;;;4989991;28;20508;-63
2023/12/26 03:53:12;;;;;;;5.10;2.03;;;5.10;74.50;;;;;;4990832;28;20038;-66
2023/12/26 03:55:37;;;;;;;3.38;1.92;;;5.00;74.70;;;;;;4988281;28;20169;-63
2023/12/26 03:58:03;;;;;;;5.10;1.70;;;5.00;74.70;;;;;;4990455;28;20044;-65
2023/12/26 04:00:29;;;;;;;3.63;1.58;;;5.00;74.70;;;;;;4990170;28;20045;-65
2023/12/26 04:02:55;;;;;;;4.63;1.70;;;5.00;74.60;;;;;;4990528;28;20093;-65
2023/12/26 04:05:21;;;;;;;2.92;1.92;;;5.00;74.70;;;;;;4990211;28;20099;-65
2023/12/26 04:07:48;;;;;;;3.92;1.58;;;5.00;74.70;;;;;;4990892;28;20501;-66
2023/12/26 04:10:13;;;;;;;2.67;1.70;;;5.00;74.70;;;;;;4989685;28;20062;-65
2023/12/26 04:12:41;;;;;;;3.25;1.50;;;5.00;74.70;;;;;;4983800;28;20050;-66
2023/12/26 04:15:07;;;;;;;3.53;1.70;;;4.90;74.60;;;;;;4989374;28;20395;-65
2023/12/26 04:17:33;;;;;;;3.67;1.52;;;4.90;74.60;;;;;;4982792;28;20544;-66
2023/12/26 04:19:58;;;;;;;2.85;1.48;;;4.90;74.80;;;;;;4989984;28;20347;-65
2023/12/26 04:22:24;;;;;;;3.05;1.60;;;4.80;75.10;;;;;;4989382;28;20046;-65
2023/12/26 04:24:49;;;;;;;1.60;1.23;;;4.80;75.30;;;;;;4990229;28;20034;-66
2023/12/26 04:27:15;;;;;;;3.72;1.73;;;4.80;75.40;;;;;;4989892;28;20035;-63
2023/12/26 04:29:41;;;;;;;2.47;1.50;;;4.80;75.50;;;;;;4989126;28;20063;-65
2023/12/26 04:32:06;;;;;;;2.53;1.48;;;4.80;75.60;;;;;;4989708;28;20022;-65
2023/12/26 04:34:32;;;;;;;2.10;1.40;;;4.80;75.70;;;;;;4988128;28;20449;-65
2023/12/26 04:36:58;;;;;;;3.80;1.50;;;4.80;75.80;;;;;;4988170;28;20406;-65
2023/12/26 04:39:23;;;;;;;4.60;1.70;;;4.90;76.00;;;;;;4988946;28;20466;-65
2023/12/26 04:41:49;;;;;;;2.28;1.60;;;4.80;76.10;;;;;;4987926;28;20525;-65
2023/12/26 04:44:15;;;;;;;2.83;1.48;;;4.80;76.20;;;;;;4990296;28;20133;-65
2023/12/26 04:46:40;;;;;;;2.17;1.55;;;4.80;76.40;;;;;;4989692;28;20070;-65
2023/12/26 04:49:06;;;;;;;1.95;1.50;;;4.80;76.50;;;;;;4989154;28;20061;-65
2023/12/26 04:51:31;;;;;;;5.80;2.05;;;4.80;77.10;;;;;;4990203;28;20445;-65
2023/12/26 04:53:57;;;;;;;4.93;2.72;;;4.80;77.20;;;;;;4989983;28;20069;-66
2023/12/26 04:56:23;;;;;;;3.83;2.38;;;4.80;77.20;;;;;;4992945;28;20109;-66
2023/12/26 04:58:50;;;;;;;4.63;1.83;;;4.80;77.30;;;;;;4986239;28;20050;-65
2023/12/26 05:01:17;;;;;;;2.92;1.90;;;4.90;77.60;;;;;;4989317;28;20061;-65
2023/12/26 05:03:43;;;;;;;3.47;1.58;;;4.90;78.00;;;;;;4989395;28;20038;-65
2023/12/26 05:06:09;;;;;;;4.43;1.80;;;4.90;78.30;;;;;;4988016;28;20091;-65
2023/12/26 05:08:40;;;;;;;4.15;1.65;;;5.00;78.70;;;;;;4987787;28;20150;-65
2023/12/26 05:11:06;;;;;;;5.00;1.80;;;5.10;79.20;;;;;;4989267;28;20038;-65
2023/12/26 05:13:33;;;;;;;3.78;1.50;;;5.10;79.20;;;;;;4990851;28;20048;-65
2023/12/26 05:16:05;;;;;;;2.75;1.52;;;5.20;79.60;;;;;;4989815;28;20038;-65
2023/12/26 05:18:31;;;;;;;3.88;1.70;;;5.30;80.10;;;;;;4986888;28;20081;-65
2023/12/26 05:20:58;;;;;;;2.70;1.45;;;5.40;79.70;;;;;;4986304;28;20026;-64
2023/12/26 05:23:24;;;;;;;2.28;1.30;;;5.50;79.90;;;;;;4989388;28;20041;-65
2023/12/26 05:25:49;;;;;;;2.35;1.50;;;5.60;79.70;;;;;;4987993;28;20026;-65
2023/12/26 05:28:15;;;;;;;4.65;1.60;;;5.70;79.70;;;;;;4989244;28;20066;-65
2023/12/26 05:30:40;;;;;;;2.55;1.42;;;5.70;79.70;;;;;;4988664;28;20038;-65
2023/12/26 05:33:06;;;;;;;3.30;1.40;;;5.80;79.80;;;;;;4988085;28;20109;-65
2023/12/26 05:35:32;;;;;;;2.80;1.40;;;5.90;79.90;;;;;;4989825;28;20517;-65
2023/12/26 05:37:57;;;;;;;1.75;1.38;;;6.00;79.70;;;;;;4988914;28;20039;-65
2023/12/26 05:40:23;;;;;;;4.80;1.40;;;6.00;79.60;;;;;;4987892;28;20449;-65
2023/12/26 05:42:48;;;;;;;2.55;1.33;;;6.10;79.60;;;;;;4986910;28;20038;-65
2023/12/26 05:45:14;;;;;;;4.40;1.40;;;6.20;79.50;;;;;;4986992;28;20041;-65
2023/12/26 05:47:40;;;;;;;2.63;1.50;;;6.20;79.40;;;;;;4987610;28;20046;-65
2023/12/26 05:50:06;;;;;;;2.78;1.50;;;6.30;79.50;;;;;;4985881;28;20037;-65
2023/12/26 05:52:32;;;;;;;3.85;1.35;;;6.40;79.50;;;;;;4988497;28;20066;-65
2023/12/26 05:54:57;;;;;;;6.53;1.40;;;6.40;79.50;;;;;;4991022;28;20061;-65
2023/12/26 05:57:23;;;;;;;5.65;1.48;;;6.50;79.50;;;;;;4988129;28;20059;-64
2023/12/26 05:59:49;;;;;;;3.72;1.40;;;6.50;79.20;;;;;;4987295;28;20030;-65
2023/12/26 06:02:15;;;;;;;7.07;1.45;;;6.50;79.10;;;;;;4988648;28;20042;-66
2023/12/26 06:04:40;;;;;;;4.85;1.60;;;6.60;79.00;;;;;;4988199;28;20100;-66
2023/12/26 06:07:07;;;;;;;2.78;1.65;;;6.60;79.00;;;;;;4987549;28;20164;-65
2023/12/26 06:09:33;;;;;;;3.05;1.50;;;6.70;78.90;;;;;;4987147;28;20030;-64
2023/12/26 06:11:58;;;;;;;4.20;1.40;;;6.70;78.90;;;;;;4989856;28;20041;-65
2023/12/26 06:14:24;;;;;;;4.00;1.52;;;6.70;78.90;;;;;;4993013;28;20042;-65
2023/12/26 06:16:50;;;;;;;2.72;1.38;;;6.80;78.90;;;;;;4988123;28;20039;-65
2023/12/26 06:19:16;;;;;;;2.70;1.45;;;6.80;78.90;;;;;;4987510;28;20089;-65
2023/12/26 06:21:41;;;;;;;2.58;1.55;;;6.80;78.90;;;;;;4986704;28;20046;-65
2023/12/26 06:24:08;;;;;;;3.22;1.50;;;6.80;78.60;;;;;;4987148;28;20042;-65
2023/12/26 06:26:34;;;;;;;2.80;1.58;;;6.90;79.60;;;;;;4986055;28;20634;-65
2023/12/26 06:28:59;;;;;;;2.72;1.58;;;6.90;78.70;;;;;;4987358;28;20129;-66
2023/12/26 06:31:25;;;;;;;3.10;1.33;;;6.90;78.90;;;;;;4988125;28;20121;-65
2023/12/26 06:33:51;;;;;;;4.15;1.45;;;6.90;78.70;;;;;;4988041;28;20169;-66
2023/12/26 06:36:17;;;;;;;3.47;1.48;;;6.90;78.80;;;;;;4988462;28;20062;-65
2023/12/26 06:38:43;;;;;;;2.80;1.48;;;6.90;78.80;;;;;;4986486;28;20076;-65
2023/12/26 06:41:10;;;;;;;2.95;1.40;;;6.90;78.80;;;;;;4986791;28;20065;-65
2023/12/26 06:43:36;;;;;;;4.22;1.50;;;7.00;78.90;;;;;;4987115;28;20027;-65
2023/12/26 06:46:05;;;;;;;7.10;1.92;;;7.00;79.10;;;;;;4988114;28;20030;-64
2023/12/26 06:48:31;;;;;;;4.22;1.48;;;7.00;79.20;;;;;;4987644;28;20035;-65
2023/12/26 06:50:57;;;;;;;3.17;1.50;;;7.00;78.90;;;;;;4988225;28;20031;-65
2023/12/26 06:53:23;;;;;;;3.85;1.65;;;7.00;78.90;;;;;;4987531;28;20441;-64
2023/12/26 06:55:48;;;;;;;2.45;1.52;;;7.00;79.00;;;;;;4986981;28;20366;-65
2023/12/26 06:58:14;;;;;;;3.35;1.50;;;7.10;78.90;;;;;;4986607;28;20120;-65
2023/12/26 07:00:40;;;;;;;2.63;1.50;;;7.10;79.00;;;;;;4990809;28;20537;-65
2023/12/26 07:03:05;;;;;;;3.67;1.48;;;7.10;78.80;;;;;;4990807;28;20045;-64
2023/12/26 07:05:31;;;;;;;6.20;1.50;;;7.10;78.90;;;;;;4991012;28;20054;-64
2023/12/26 07:07:56;;;;;;;4.78;1.67;;;7.10;78.90;;;;;;4990038;28;20037;-64
2023/12/26 07:10:22;;;;;;;5.80;1.63;;;7.10;79.00;;;;;;4990397;28;20038;-64
2023/12/26 07:12:48;;;;;;;3.08;1.77;;;7.20;79.30;;;;;;4990707;28;20030;-65
2023/12/26 07:15:13;;;;;;;4.47;2.25;;;7.10;79.10;;;;;;4991192;28;20273;-64
2023/12/26 07:17:39;;;;;;;7.05;2.47;;;7.10;79.10;;;;;;4989753;28;20137;-65
2023/12/26 07:20:08;;;;;;;4.55;2.30;;;7.20;79.20;;;;;;4976484;28;20086;-65
2023/12/26 07:22:34;;;;;;;5.97;1.60;;;7.20;79.10;;;;;;4978142;28;20042;-65
2023/12/26 07:24:59;;;;;;;3.97;2.13;;;7.20;79.10;;;;;;4981633;28;20514;-64
2023/12/26 07:27:25;;;;;;;4.43;1.52;;;7.40;79.20;;;;;;4987848;28;20125;-64
2023/12/26 07:29:51;;;;;;;2.85;1.55;;;7.30;79.00;;;;;;4982860;28;20506;-64
2023/12/26 07:32:19;;;;;;;2.90;1.60;;;7.30;79.10;;;;;;4984028;28;20035;-64
2023/12/26 07:34:46;;;;;;;3.22;1.70;;;7.30;79.10;;;;;;4983766;28;20042;-65
2023/12/26 07:37:12;;;;;;;3.28;1.60;;;7.30;79.10;;;;;;4989856;28;20034;-64
2023/12/26 07:39:37;;;;;;;2.28;1.67;;;7.30;79.10;;;;;;4985016;28;20034;-64
2023/12/26 07:42:03;;;;;;;4.82;1.70;;;7.30;79.20;;;;;;4985090;28;20117;-64
2023/12/26 07:44:29;;;;;;;5.90;1.88;;;7.40;79.30;;;;;;4989193;28;20034;-65
2023/12/26 07:46:54;;;;;;;4.30;1.65;;;7.40;79.40;;;;;;4985057;28;20089;-64
2023/12/26 07:49:20;;;;;;;3.15;1.63;;;7.40;79.30;;;;;;4987542;28;20333;-64
2023/12/26 07:51:46;;;;;;;3.33;1.65;;;7.40;79.30;;;;;;4988825;28;20491;-64
2023/12/26 07:54:11;;;;;;;5.00;2.15;;;7.40;79.20;;;;;;4988075;28;20042;-64
2023/12/26 07:56:38;;;;;;;2.58;1.77;;;7.40;79.30;;;;;;4987957;28;20113;-62
2023/12/26 07:59:03;;;;;;;3.25;2.10;;;7.40;79.10;;;;;;4986529;28;20943;-64
2023/12/26 08:01:29;;;;;;;3.35;1.70;;;7.50;79.10;;;;;;4982426;28;20524;-64
2023/12/26 08:03:55;;;;;;;4.60;1.80;;;7.50;79.10;;;;;;4987807;28;20026;-63
2023/12/26 08:06:25;;;;;;;6.20;1.73;;;7.50;79.30;;;;;;4987239;28;20250;-64
2023/12/26 08:08:51;;;;;;;2.78;1.90;;;7.50;79.30;;;;;;4986749;28;20564;-62
2023/12/26 08:11:17;;;;;;;4.72;1.90;;;7.50;79.20;;;;;;4985630;28;20026;-63
2023/12/26 08:13:44;;;;;;;4.25;1.85;;;7.50;79.30;;;;;;4986699;28;20462;-63
2023/12/26 08:16:09;;;;;;;4.65;1.90;;;7.50;79.30;;;;;;4986886;28;20454;-64
2023/12/26 08:18:35;;;;;;;3.63;1.85;;;7.50;79.40;;;;;;4981625;28;20042;-63
2023/12/26 08:21:02;;;;;;;5.68;2.30;;;7.50;79.50;;;;;;4980696;28;20176;-64
2023/12/26 08:23:28;;;;;;;3.85;2.28;;;7.40;79.60;;;;;;4981133;28;21168;-65
2023/12/26 08:25:54;;;;;;;4.38;2.10;;;7.50;79.70;;;;;;4980948;28;20129;-64
2023/12/26 08:28:20;;;;;;;2.83;1.85;;;7.50;79.70;;;;;;4984409;28;20030;-65
2023/12/26 08:30:45;;;;;;;3.25;2.10;;;7.40;79.80;;;;;;4986477;28;20041;-65
2023/12/26 08:33:11;;;;;;;5.07;1.95;;;7.50;80.00;;;;;;4988228;28;20034;-64
2023/12/26 08:35:37;;;;;;;3.10;1.95;;;7.50;80.00;;;;;;4983916;28;20038;-64
2023/12/26 08:38:02;;;;;;;2.78;1.95;;;7.40;80.00;;;;;;4986654;28;20289;-64
2023/12/26 08:40:28;;;;;;;5.50;1.90;;;7.50;80.10;;;;;;4987341;28;20132;-64
2023/12/26 08:42:54;;;;;;;3.78;1.77;;;7.50;80.20;;;;;;4989405;28;20484;-65
2023/12/26 08:45:19;;;;;;;3.35;1.98;;;7.50;80.20;;;;;;4990392;28;20054;-65
2023/12/26 08:47:45;;;;;;;4.53;1.63;;;7.50;80.20;;;;;;4981460;28;20034;-65
2023/12/26 08:50:11;;;;;;;3.63;1.90;;;7.60;80.10;;;;;;4990790;28;20042;-64
2023/12/26 08:52:36;;;;;;;3.10;2.10;;;7.60;80.30;;;;;;4989637;28;20030;-64
2023/12/26 08:55:02;;;;;;;4.68;2.58;;;7.60;80.50;;;;;;4988439;28;20038;-64
2023/12/26 08:57:28;;;;;;;6.75;2.80;;;7.60;80.30;;;;;;4989496;28;20046;-63
2023/12/26 08:59:53;;;;;;;7.25;2.55;;;7.60;80.30;;;;;;4989033;28;20105;-65
2023/12/26 09:02:19;;;;;;;3.97;2.38;;;7.70;80.30;;;;;;4986520;28;20626;-64
2023/12/26 09:04:46;;;;;;;6.07;2.33;;;7.70;80.50;;;;;;4987916;28;20084;-65
2023/12/26 09:07:12;;;;;;;4.30;2.03;;;7.70;80.80;;;;;;4990092;28;20046;-64
2023/12/26 09:09:37;;;;;;;4.97;2.15;;;7.70;80.80;;;;;;4987315;28;20109;-62
2023/12/26 09:12:03;;;;;;;7.10;3.88;;;7.70;80.80;;;;;;4988933;28;20030;-64
2023/12/26 09:14:29;;;;;;;5.53;3.88;;;7.70;80.80;;;;;;4988139;28;20556;-64
2023/12/26 09:16:54;;;;;;;4.13;2.90;;;7.80;80.80;;;;;;4989687;28;20800;-65
2023/12/26 09:19:20;;;;;;;3.65;2.72;;;7.80;80.80;;;;;;4984311;28;20479;-64
2023/12/26 09:21:46;;;;;;;3.42;2.50;;;7.80;80.80;;;;;;4990162;28;20296;-66
2023/12/26 09:24:11;;;;;;;3.60;2.20;;;7.90;80.80;;;;;;4987862;28;20040;-65
2023/12/26 09:26:37;;;;;;;4.88;2.72;;;7.90;80.80;;;;;;4984657;28;20034;-64
2023/12/26 09:29:03;;;;;;;3.63;2.30;;;8.00;80.80;;;;;;4982557;28;20057;-66
2023/12/26 09:31:28;;;;;;;5.63;2.40;;;8.00;80.80;;;;;;4984261;28;21392;-63
2023/12/26 09:33:54;;;;;;;3.20;1.90;;;8.00;80.90;;;;;;4986575;28;20125;-65
2023/12/26 09:36:19;;;;;;;2.90;2.00;;;8.10;80.80;;;;;;4988169;28;20023;-64
2023/12/26 09:38:45;;;;;;;4.38;2.50;;;8.10;80.70;;;;;;4987955;28;20050;-64
2023/12/26 09:41:13;;;;;;;4.13;1.98;;;8.10;80.70;;;;;;4988143;28;20042;-64
2023/12/26 09:43:40;;;;;;;6.38;2.10;;;8.20;80.80;;;;;;4983556;28;20030;-63
2023/12/26 09:46:06;;;;;;;5.03;1.75;;;8.20;80.70;;;;;;4988529;28;20023;-65
2023/12/26 09:48:33;;;;;;;4.47;1.70;;;8.20;80.60;;;;;;4987973;28;20737;-64
2023/12/26 09:51:03;;;;;;;6.43;1.77;;;8.30;80.50;;;;;;4987582;28;20066;-64
2023/12/26 09:53:37;;;;;;;2.92;1.52;;;8.30;80.30;;;;;;4988193;28;20465;-61
2023/12/26 09:56:04;;;;;;;4.07;1.67;;;8.40;80.30;;;;;;4984850;28;20451;-63
2023/12/26 09:58:30;;;;;;;2.95;1.55;;;8.50;80.20;;;;;;4988135;28;20046;-63
2023/12/26 10:00:57;;;;;;;2.45;1.52;;;8.50;80.00;;;;;;4983007;28;20042;-62
2023/12/26 10:03:24;;;;;;;3.58;1.80;;;8.50;79.90;;;;;;4987183;28;20030;-62
2023/12/26 10:05:57;;;;;;;3.05;1.73;;;8.60;79.80;;;;;;4986490;28;20038;-64
2023/12/26 10:08:23;;;;;;;3.70;2.10;;;8.70;79.80;;;;;;4983551;28;20130;-64
2023/12/26 10:10:48;;;;;;;4.18;1.70;;;8.70;79.80;;;;;;4982757;28;20125;-62
2023/12/26 10:13:14;;;;;;;5.78;2.00;;;8.70;79.70;;;;;;4985773;28;20502;-64
2023/12/26 10:15:42;;;;;;;2.47;1.60;;;8.80;79.60;;;;;;4988918;28;20038;-64
2023/12/26 10:18:10;;;;;;;2.22;1.52;;;8.80;79.50;;;;;;4987462;28;20062;-62
2023/12/26 10:20:36;;;;;;;3.72;1.73;;;8.80;79.40;;;;;;4985604;28;20034;-61
2023/12/26 10:23:05;;;;;;;3.10;1.48;;;8.90;79.40;;;;;;4984740;28;20065;-63
2023/12/26 10:25:30;;;;;;;3.30;1.58;;;8.90;79.30;;;;;;4987750;28;20046;-63
2023/12/26 10:27:57;;;;;;;3.78;1.70;;;8.90;79.30;;;;;;4981880;28;20054;-62
2023/12/26 10:30:24;;;;;;;3.50;2.05;;;9.00;79.20;;;;;;4986455;28;20469;-63
2023/12/26 10:33:00;;;;;;;3.10;1.67;;;9.00;79.10;;;;;;4984651;28;20034;-61
2023/12/26 10:35:26;;;;;;;6.45;2.60;;;9.10;79.10;;;;;;4987164;28;20050;-63
2023/12/26 10:37:53;;;;;;;4.85;2.63;;;9.10;78.80;;;;;;4992165;28;20061;-62
2023/12/26 10:40:18;;;;;;;4.65;2.55;;;9.10;78.70;;;;;;4990997;28;20038;-62
2023/12/26 10:42:48;;;;;;;4.18;2.22;;;9.20;78.70;;;;;;4991142;28;20096;-62
2023/12/26 10:45:14;;;;;;;6.38;2.40;;;9.20;78.70;;;;;;4990896;28;20133;-60
2023/12/26 10:47:44;;;;;;;3.40;1.60;;;9.20;78.50;;;;;;4991275;28;20117;-63
2023/12/26 10:50:12;;;;;;;2.67;1.45;;;9.30;79.20;;;;;;4990919;28;20062;-61
2023/12/26 10:53:26;;;;;;;5.40;1.88;;;9.30;78.00;;;;;;4988464;28;20027;-63
2023/12/26 10:55:27;;;;;;;4.93;1.58;;;9.30;77.90;;;;;;4979033;28;20034;-63
2023/12/26 10:58:15;;;;;;;3.22;1.50;;;9.40;77.80;;;;;;4990375;28;20429;-61
2023/12/26 11:00:50;;;;;;;3.22;1.63;;;9.40;77.50;;;;;;4986846;28;21055;-62
2023/12/26 13:52:12;;;;;;;3.92;1.80;;;10.70;73.20;;;;;;4987476;28;20089;-64
2023/12/26 13:55:15;;;;;;;4.28;1.67;;;10.70;73.50;;;;;;4987240;28;20035;-63
2023/12/26 13:58:18;;;;;;;4.75;1.92;;;10.70;73.80;;;;;;4987160;28;20038;-62
2023/12/26 14:01:22;;;;;;;4.93;2.58;;;10.70;73.90;;;;;;4986843;28;20028;-64
2023/12/26 14:04:26;;;;;;;6.95;2.50;;;10.70;74.10;;;;;;4986457;28;20026;-63
2023/12/26 14:07:29;;;;;;;3.50;2.10;;;10.70;74.20;;;;;;4981661;28;20049;-63
2023/12/26 14:10:32;;;;;;;6.88;2.10;;;10.70;74.20;;;;;;4989403;28;20049;-65
2023/12/26 14:13:35;;;;;;;8.23;2.90;;;10.70;74.20;;;;;;4993893;28;20034;-64
2023/12/26 14:16:38;;;;;;;7.72;3.67;;;10.70;74.40;;;;;;4996003;28;20048;-64
2023/12/26 14:19:41;;;;;;;4.55;2.40;;;10.70;74.40;;;;;;4993655;28;20038;-64
2023/12/26 14:22:44;;;;;;;2.90;1.55;;;10.60;74.40;;;;;;4996874;28;20038;-64
2023/12/26 14:25:48;;;;;;;6.78;1.88;;;10.60;74.40;;;;;;4996226;28;20526;-64
2023/12/26 14:28:51;;;;;;;3.90;1.60;;;10.60;74.40;;;;;;4996969;28;20041;-64
2023/12/26 14:31:54;;;;;;;3.20;1.52;;;10.60;74.60;;;;;;4994175;28;20486;-65
2023/12/26 14:34:58;;;;;;;5.30;1.63;;;10.60;74.70;;;;;;4993488;28;20176;-64
2023/12/26 14:38:02;;;;;;;5.07;1.60;;;10.60;74.80;;;;;;4995203;28;20057;-64
2023/12/26 14:41:05;;;;;;;4.97;1.83;;;10.60;74.70;;;;;;4997846;28;20034;-64
2023/12/26 14:44:08;;;;;;;4.75;1.63;;;10.60;74.70;;;;;;4989007;28;20035;-64
2023/12/26 14:47:11;;;;;;;4.20;1.70;;;10.60;74.70;;;;;;4984787;28;20057;-64
2023/12/26 14:50:14;;;;;;;3.95;1.55;;;10.50;74.70;;;;;;4989609;28;20573;-64
2023/12/26 14:53:17;;;;;;;4.03;1.70;;;10.50;74.80;;;;;;4988202;28;20038;-64
2023/12/26 14:56:21;;;;;;;5.47;1.60;;;10.50;74.90;;;;;;4992433;28;20039;-64
2023/12/26 14:59:23;;;;;;;4.85;2.30;;;10.50;74.90;;;;;;4991064;28;20031;-64
2023/12/26 15:02:01;;;;;;;2.97;1.60;;;10.50;74.90;;;;;;4989236;28;20035;-63
2023/12/26 15:04:28;;;;;;;4.22;1.60;;;10.50;74.80;;;;;;4988245;28;20092;-62
2023/12/26 15:06:58;;;;;;;4.50;1.42;;;10.50;74.80;;;;;;4991139;28;20023;-63
2023/12/26 15:09:24;;;;;;;2.72;1.55;;;10.50;74.80;;;;;;4990087;28;20035;-63
2023/12/26 15:11:50;;;;;;;3.00;1.58;;;10.50;74.80;;;;;;4991876;28;20034;-62
2023/12/26 15:14:16;;;;;;;3.65;1.55;;;10.50;74.70;;;;;;4992107;28;20069;-63
2023/12/26 15:16:42;;;;;;;5.20;1.75;;;10.50;74.70;;;;;;4990327;28;20031;-63
2023/12/26 15:19:08;;;;;;;4.78;1.83;;;10.50;74.80;;;;;;4991530;28;20401;-64
2023/12/26 15:21:42;;;;;;;4.30;1.60;;;10.50;74.80;;;;;;4989846;28;20035;-64
2023/12/26 15:24:10;;;;;;;5.53;1.73;;;10.50;74.80;;;;;;4990719;28;20023;-63
2023/12/26 15:26:35;;;;;;;4.70;1.42;;;10.40;74.70;;;;;;4990129;28;20454;-63
2023/12/26 15:29:01;;;;;;;3.53;1.75;;;10.40;74.80;;;;;;4991585;28;20026;-64
2023/12/26 15:31:27;;;;;;;6.72;2.22;;;10.40;74.90;;;;;;4989892;28;20124;-63
2023/12/26 15:33:52;;;;;;;6.10;2.38;;;10.40;74.90;;;;;;4990437;28;20209;-64
2023/12/26 15:36:20;;;;;;;5.78;2.20;;;10.40;74.90;;;;;;4991017;28;20516;-64
2023/12/26 15:38:46;;;;;;;4.10;2.10;;;10.40;75.00;;;;;;4987778;28;20414;-63
2023/12/26 15:41:12;;;;;;;4.57;2.00;;;10.40;75.80;;;;;;4989711;28;20052;-63
2023/12/26 15:43:38;;;;;;;3.15;1.70;;;10.30;74.90;;;;;;4990901;28;20026;-64
2023/12/26 15:46:13;;;;;;;6.93;2.10;;;10.30;75.00;;;;;;4990044;28;20045;-64
2023/12/26 15:48:39;;;;;;;3.45;1.55;;;10.30;75.00;;;;;;4988753;28;20498;-64
2023/12/26 15:51:05;;;;;;;3.85;1.75;;;10.30;75.00;;;;;;4985018;28;20049;-64
2023/12/26 15:53:30;;;;;;;4.53;1.70;;;10.30;75.10;;;;;;4986602;28;20491;-64